createdAt,value
2018-10-21T00:01:07.169Z,22.23
2018-10-21T00:03:36.183Z,24.13
2018-10-21T00:06:05.040Z,23.02
2018-10-21T00:08:33.715Z,26.07
2018-10-21T00:11:02.429Z,33.30
2018-10-21T00:13:31.810Z,29.70
2018-10-21T00:16:00.518Z,26.20
2018-10-21T00:18:29.223Z,23.43
2018-10-21T00:20:58.039Z,26.37
2018-10-21T00:23:26.668Z,29.70
2018-10-21T00:25:55.412Z,25.57
2018-10-21T00:28:24.140Z,23.33
2018-10-21T00:30:52.864Z,26.77
2018-10-21T00:33:21.577Z,26.90
2018-10-21T00:35:50.296Z,26.87
2018-10-21T00:38:19.021Z,27.77
2018-10-21T00:40:48.126Z,28.90
2018-10-21T00:43:17.120Z,26.33
2018-10-21T00:45:45.833Z,22.83
2018-10-21T00:48:14.540Z,23.80
2018-10-21T00:50:43.296Z,25.33
2018-10-21T00:53:12.010Z,21.30
2018-10-21T00:55:40.873Z,22.20
2018-10-21T00:58:10.667Z,26.60
2018-10-21T01:00:39.402Z,25.17
2018-10-21T01:03:08.153Z,25.53
2018-10-21T01:05:36.848Z,28.70
2018-10-21T01:08:05.814Z,27.53
2018-10-21T01:10:36.339Z,24.87
2018-10-21T01:13:05.207Z,27.73
2018-10-21T01:15:33.938Z,25.17
2018-10-21T01:18:02.676Z,25.83
2018-10-21T01:20:31.383Z,23.80
2018-10-21T01:23:00.133Z,30.83
2018-10-21T01:25:28.853Z,31.13
2018-10-21T01:27:57.560Z,30.60
2018-10-21T01:30:26.296Z,30.17
2018-10-21T01:32:55.051Z,31.30
2018-10-21T01:35:23.728Z,26.43
2018-10-21T01:37:52.725Z,24.00
2018-10-21T01:40:32.281Z,25.10
2018-10-21T01:43:01.504Z,32.80
2018-10-21T01:45:30.226Z,28.53
2018-10-21T01:48:00.314Z,25.50
2018-10-21T01:50:29.050Z,28.27
2018-10-21T01:52:58.899Z,29.30
2018-10-21T01:55:28.025Z,34.93
2018-10-21T01:57:57.397Z,32.63
2018-10-21T02:00:26.735Z,29.20
2018-10-21T02:02:56.059Z,35.07
2018-10-21T02:05:24.964Z,30.57
2018-10-21T02:07:54.244Z,31.20
2018-10-21T02:10:23.245Z,33.90
2018-10-21T02:12:52.080Z,36.30
2018-10-21T02:15:20.789Z,33.27
2018-10-21T02:17:49.536Z,32.57
2018-10-21T02:20:18.948Z,37.00
2018-10-21T02:22:48.260Z,33.37
2018-10-21T02:25:17.037Z,29.63
2018-10-21T02:27:46.543Z,31.27
2018-10-21T02:30:17.718Z,34.43
2018-10-21T02:32:47.252Z,34.47
2018-10-21T02:35:16.789Z,33.33
2018-10-21T02:37:45.836Z,31.90
2018-10-21T02:41:28.605Z,29.00
2018-10-21T02:43:57.339Z,28.30
2018-10-21T02:46:26.284Z,33.67
2018-10-21T02:48:56.199Z,29.07
2018-10-21T02:51:25.110Z,32.27
2018-10-21T02:53:53.824Z,31.30
2018-10-21T02:56:22.540Z,36.97
2018-10-21T02:58:51.466Z,32.27
2018-10-21T03:01:20.192Z,34.33
2018-10-21T03:03:49.179Z,29.87
2018-10-21T03:06:17.987Z,33.50
2018-10-21T03:08:46.688Z,30.80
2018-10-21T03:11:15.523Z,34.78
2018-10-21T03:13:44.253Z,30.40
2018-10-21T03:16:12.973Z,28.57
2018-10-21T03:18:41.712Z,30.87
2018-10-21T03:21:10.446Z,34.12
2018-10-21T03:23:39.291Z,30.60
2018-10-21T03:26:07.981Z,32.83
2018-10-21T03:28:36.695Z,35.30
2018-10-21T03:31:05.426Z,33.93
2018-10-21T03:33:34.209Z,32.50
2018-10-21T03:36:02.898Z,30.90
2018-10-21T03:38:31.620Z,32.00
2018-10-21T03:41:00.344Z,32.70
2018-10-21T03:43:29.068Z,31.63
2018-10-21T03:45:57.805Z,34.53
2018-10-21T03:48:26.502Z,38.33
2018-10-21T03:50:55.699Z,33.90
2018-10-21T03:53:24.707Z,31.73
2018-10-21T03:55:53.445Z,36.03
2018-10-21T03:58:22.394Z,31.37
2018-10-21T04:00:51.379Z,30.77
2018-10-21T04:03:20.226Z,33.18
2018-10-21T04:05:48.957Z,39.70
2018-10-21T04:08:18.367Z,32.10
2018-10-21T04:10:47.353Z,37.17
2018-10-21T04:13:16.114Z,38.40
2018-10-21T04:15:45.126Z,41.10
2018-10-21T04:18:13.808Z,35.17
2018-10-21T04:20:42.579Z,32.10
2018-10-21T04:23:11.293Z,37.77
2018-10-21T04:25:40.560Z,39.53
2018-10-21T04:28:09.903Z,40.13
2018-10-21T04:30:39.656Z,41.27
2018-10-21T04:33:13.733Z,33.43
2018-10-21T04:35:42.772Z,39.20
2018-10-21T04:40:21.702Z,42.77
2018-10-21T04:42:51.104Z,40.40
2018-10-21T04:45:22.678Z,40.20
2018-10-21T04:47:51.404Z,31.93
2018-10-21T04:50:20.117Z,34.83
2018-10-21T04:52:48.839Z,42.80
2018-10-21T04:55:17.641Z,42.05
2018-10-21T04:57:47.523Z,39.40
2018-10-21T05:00:18.153Z,37.60
2018-10-21T05:02:46.885Z,41.33
2018-10-21T05:05:16.132Z,39.70
2018-10-21T05:07:44.852Z,38.37
2018-10-21T05:10:33.368Z,37.08
2018-10-21T05:13:02.389Z,39.30
2018-10-21T05:15:32.402Z,40.83
2018-10-21T05:18:01.164Z,39.97
2018-10-21T05:20:29.884Z,39.10
2018-10-21T05:22:58.601Z,39.43
2018-10-21T05:25:27.331Z,43.00
2018-10-21T05:27:56.091Z,43.73
2018-10-21T05:30:24.760Z,43.97
2018-10-21T05:32:53.483Z,46.03
2018-10-21T05:35:22.363Z,42.57
2018-10-21T05:37:51.214Z,49.80
2018-10-21T05:40:21.081Z,46.40
2018-10-21T05:42:50.169Z,41.60
2018-10-21T05:45:18.916Z,44.03
2018-10-21T05:47:47.644Z,48.00
2018-10-21T05:50:16.936Z,48.47
2018-10-21T05:52:45.699Z,46.33
2018-10-21T05:55:14.926Z,43.47
2018-10-21T05:57:43.642Z,45.03
2018-10-21T06:00:14.859Z,44.88
2018-10-21T06:02:43.882Z,43.10
2018-10-21T06:05:23.984Z,40.25
2018-10-21T06:07:52.712Z,42.70
2018-10-21T06:10:21.429Z,39.45
2018-10-21T06:12:50.152Z,49.57
2018-10-21T06:15:18.864Z,47.48
2018-10-21T06:17:47.644Z,46.57
2018-10-21T06:20:19.121Z,42.67
2018-10-21T06:22:48.168Z,46.00
2018-10-21T06:25:16.910Z,43.57
2018-10-21T06:27:45.656Z,46.50
2018-10-21T06:30:14.371Z,41.60
2018-10-21T06:32:43.079Z,45.47
2018-10-21T06:35:11.807Z,47.10
2018-10-21T06:37:40.521Z,48.40
2018-10-21T06:40:10.900Z,51.23
2018-10-21T06:42:39.687Z,50.60
2018-10-21T06:45:09.523Z,44.87
2018-10-21T06:47:38.228Z,39.97
2018-10-21T06:50:12.594Z,42.90
2018-10-21T06:52:41.328Z,46.77
2018-10-21T06:55:10.495Z,41.90
2018-10-21T06:57:39.417Z,47.57
2018-10-21T07:00:08.462Z,41.07
2018-10-21T07:02:43.790Z,45.93
2018-10-21T07:05:24.142Z,43.37
2018-10-21T07:07:53.021Z,46.50
2018-10-21T07:10:21.743Z,47.40
2018-10-21T07:12:50.953Z,49.83
2018-10-21T07:15:20.225Z,56.92
2018-10-21T07:17:48.888Z,52.93
2018-10-21T07:20:17.611Z,57.93
2018-10-21T07:22:46.323Z,50.00
2018-10-21T07:25:15.144Z,55.28
2018-10-21T07:27:43.870Z,57.17
2018-10-21T07:30:13.285Z,58.35
2018-10-21T07:32:42.912Z,56.13
2018-10-21T07:35:13.592Z,55.28
2018-10-21T07:37:43.236Z,60.20
2018-10-21T07:40:12.918Z,55.48
2018-10-21T07:42:42.028Z,55.93
2018-10-21T07:45:10.759Z,56.43
2018-10-21T07:47:39.460Z,51.23
2018-10-21T07:50:14.742Z,53.47
2018-10-21T07:52:43.449Z,55.13
2018-10-21T07:55:16.505Z,61.80
2018-10-21T07:57:45.350Z,57.77
2018-10-21T08:00:14.020Z,62.43
2018-10-21T08:02:42.788Z,52.10
2018-10-21T08:05:23.195Z,57.23
2018-10-21T08:08:03.247Z,55.05
2018-10-21T08:10:31.979Z,53.50
2018-10-21T08:13:00.691Z,55.90
2018-10-21T08:15:29.401Z,60.73
2018-10-21T08:17:58.123Z,61.13
2018-10-21T08:20:26.832Z,59.07
2018-10-21T08:22:55.703Z,58.93
2018-10-21T08:25:24.560Z,53.67
2018-10-21T08:27:53.257Z,61.40
2018-10-21T08:30:22.105Z,56.47
2018-10-21T08:32:51.381Z,56.03
2018-10-21T08:35:20.769Z,53.23
2018-10-21T08:37:49.503Z,55.20
2018-10-21T08:40:18.404Z,58.50
2018-10-21T08:42:47.113Z,55.93
2018-10-21T08:45:16.839Z,55.77
2018-10-21T08:47:45.562Z,55.10
2018-10-21T08:50:14.738Z,53.70
2018-10-21T08:52:43.618Z,56.70
2018-10-21T08:55:12.831Z,55.00
2018-10-21T08:57:41.829Z,55.23
2018-10-21T09:00:15.308Z,51.77
2018-10-21T09:02:44.404Z,52.53
2018-10-21T09:05:14.423Z,53.37
2018-10-21T09:07:43.967Z,51.17
2018-10-21T09:10:14.001Z,57.57
2018-10-21T09:12:42.844Z,57.07
2018-10-21T09:15:13.949Z,49.42
2018-10-21T09:17:42.608Z,50.53
2018-10-21T09:20:13.496Z,53.73
2018-10-21T09:22:42.308Z,50.97
2018-10-21T09:25:11.914Z,45.50
2018-10-21T09:27:41.503Z,48.60
2018-10-21T09:30:11.560Z,48.53
2018-10-21T09:32:40.309Z,44.60
2018-10-21T09:35:11.448Z,50.03
2018-10-21T09:37:40.738Z,46.77
2018-10-21T09:40:11.128Z,49.80
2018-10-21T09:42:39.803Z,50.33
2018-10-21T09:45:10.077Z,47.40
2018-10-21T09:47:38.996Z,49.63
2018-10-21T09:53:04.680Z,48.80
2018-10-21T09:55:33.410Z,46.03
2018-10-21T09:58:02.185Z,49.60
2018-10-21T10:00:36.104Z,47.77
2018-10-21T10:03:06.511Z,46.47
2018-10-21T10:05:35.272Z,47.77
2018-10-21T10:08:05.025Z,45.35
2018-10-21T10:10:33.727Z,43.93
2018-10-21T10:13:02.491Z,49.57
2018-10-21T10:15:31.253Z,48.07
2018-10-21T10:17:59.948Z,47.30
2018-10-21T10:20:28.808Z,50.00
2018-10-21T10:22:57.613Z,48.00
2018-10-21T10:25:26.356Z,42.63
2018-10-21T10:27:55.090Z,46.13
2018-10-21T10:30:24.028Z,47.53
2018-10-21T10:32:52.697Z,44.37
2018-10-21T10:35:21.484Z,44.48
2018-10-21T10:37:50.213Z,46.33
2018-10-21T10:40:18.982Z,46.27
2018-10-21T10:42:47.662Z,42.80
2018-10-21T10:45:16.427Z,41.90
2018-10-21T10:47:45.145Z,40.30
2018-10-21T10:50:13.907Z,40.43
2018-10-21T10:52:43.983Z,39.47
2018-10-21T10:55:13.168Z,44.37
2018-10-21T10:57:41.847Z,41.40
2018-10-21T11:00:11.788Z,39.87
2018-10-21T11:02:40.728Z,39.80
2018-10-21T11:05:10.288Z,41.15
2018-10-21T11:07:39.169Z,39.77
2018-10-21T11:10:08.533Z,40.77
2018-10-21T11:12:37.293Z,36.13
2018-10-21T11:15:06.788Z,41.07
2018-10-21T11:17:35.504Z,35.87
2018-10-21T11:20:05.135Z,34.08
2018-10-21T11:22:33.906Z,34.43
2018-10-21T11:25:02.585Z,31.67
2018-10-21T11:27:33.574Z,33.80
2018-10-21T11:30:02.285Z,32.03
2018-10-21T11:32:31.060Z,30.60
2018-10-21T11:34:59.793Z,28.97
2018-10-21T11:37:28.656Z,29.67
2018-10-21T11:39:58.248Z,29.43
2018-10-21T11:42:26.971Z,32.57
2018-10-21T11:44:55.900Z,28.40
2018-10-21T11:47:28.897Z,27.00
2018-10-21T11:50:00.048Z,28.67
2018-10-21T11:52:28.803Z,26.83
2018-10-21T11:54:57.524Z,28.37
2018-10-21T11:57:26.547Z,26.07
2018-10-21T11:59:55.381Z,26.90
2018-10-21T12:02:24.091Z,26.90
2018-10-21T12:04:53.069Z,30.37
2018-10-21T12:07:22.061Z,27.23
2018-10-21T12:09:51.050Z,28.77
2018-10-21T12:12:19.770Z,24.52
2018-10-21T12:14:48.496Z,21.03
2018-10-21T12:17:17.220Z,21.63
2018-10-21T12:19:46.711Z,24.90
2018-10-21T12:22:15.500Z,20.40
2018-10-21T12:24:45.309Z,21.53
2018-10-21T12:27:14.289Z,20.80
2018-10-21T12:29:43.018Z,23.07
2018-10-21T12:32:12.184Z,17.60
2018-10-21T12:37:41.255Z,21.57
2018-10-21T12:40:10.555Z,17.65
2018-10-21T12:42:39.652Z,15.17
2018-10-21T12:45:09.874Z,16.57
2018-10-21T12:47:38.756Z,17.90
2018-10-21T12:50:08.192Z,16.87
2018-10-21T12:52:37.752Z,16.13
2018-10-21T12:55:07.509Z,15.23
2018-10-21T12:57:36.192Z,18.57
2018-10-21T13:00:06.728Z,15.98
2018-10-21T13:02:35.493Z,14.47
2018-10-21T13:05:04.729Z,16.47
2018-10-21T13:07:33.504Z,15.00
2018-10-21T13:10:02.508Z,19.30
2018-10-21T13:12:31.184Z,18.00
2018-10-21T13:15:00.172Z,18.10
2018-10-21T13:17:28.898Z,18.87
2018-10-21T13:19:57.609Z,16.80
2018-10-21T13:22:26.541Z,16.93
2018-10-21T13:24:55.267Z,19.80
2018-10-21T13:27:24.001Z,18.15
2018-10-21T13:29:52.910Z,17.03
2018-10-21T13:32:21.892Z,15.23
2018-10-21T13:34:50.896Z,14.83
2018-10-21T13:37:19.884Z,17.33
2018-10-21T13:39:48.621Z,19.47
2018-10-21T13:42:17.812Z,17.77
2018-10-21T13:44:46.517Z,15.27
2018-10-21T13:47:15.774Z,16.37
2018-10-21T13:49:44.495Z,15.53
2018-10-21T13:52:13.356Z,15.57
2018-10-21T13:54:42.228Z,19.07
2018-10-21T13:57:10.940Z,19.60
2018-10-21T13:59:39.888Z,16.07
2018-10-21T14:02:12.520Z,16.23
2018-10-21T14:04:41.232Z,17.93
2018-10-21T14:07:10.046Z,18.93
2018-10-21T14:09:38.712Z,17.10
2018-10-21T14:12:07.616Z,17.77
2018-10-21T14:14:36.328Z,17.90
2018-10-21T14:17:05.127Z,15.97
2018-10-21T14:19:33.844Z,17.77
2018-10-21T14:22:02.596Z,15.07
2018-10-21T14:24:31.343Z,16.00
2018-10-21T14:27:00.046Z,16.63
2018-10-21T14:29:28.756Z,16.07
2018-10-21T14:31:57.729Z,18.90
2018-10-21T14:34:26.453Z,17.17
2018-10-21T14:36:55.206Z,18.67
2018-10-21T14:39:23.912Z,18.17
2018-10-21T14:41:52.631Z,14.97
2018-10-21T14:44:21.357Z,17.13
2018-10-21T14:46:50.144Z,15.63
2018-10-21T14:49:18.870Z,17.87
2018-10-21T14:51:48.439Z,16.37
2018-10-21T14:54:17.318Z,16.57
2018-10-21T14:56:45.967Z,17.37
2018-10-21T14:59:14.691Z,17.20
2018-10-21T15:01:43.479Z,17.40
2018-10-21T15:04:12.261Z,14.60
2018-10-21T15:06:40.919Z,18.30
2018-10-21T15:09:11.352Z,16.60
2018-10-21T15:11:40.176Z,17.40
2018-10-21T15:14:09.422Z,17.60
2018-10-21T15:16:38.192Z,16.83
2018-10-21T15:19:07.084Z,15.43
2018-10-21T15:21:35.858Z,18.87
2018-10-21T15:24:05.149Z,18.50
2018-10-21T15:26:33.926Z,17.03
2018-10-21T15:29:03.035Z,18.73
2018-10-21T15:31:31.732Z,18.90
2018-10-21T15:34:00.501Z,18.37
2018-10-21T15:36:29.157Z,19.97
2018-10-21T15:38:57.867Z,25.83
2018-10-21T15:41:26.651Z,22.70
2018-10-21T15:43:55.366Z,20.03
2018-10-21T15:46:24.084Z,19.27
2018-10-21T15:48:53.135Z,16.20
2018-10-21T15:51:21.802Z,16.05
2018-10-21T15:53:50.524Z,17.03
2018-10-21T15:56:19.865Z,17.32
2018-10-21T15:58:48.801Z,18.03
2018-10-21T16:01:17.548Z,17.92
2018-10-21T16:03:46.576Z,18.10
2018-10-21T16:06:15.304Z,21.25
2018-10-21T16:08:44.510Z,14.90
2018-10-21T16:11:13.256Z,19.93
2018-10-21T16:13:42.013Z,19.90
2018-10-21T16:16:12.097Z,23.27
2018-10-21T16:18:40.716Z,19.57
2018-10-21T16:21:09.445Z,20.97
2018-10-21T16:23:38.439Z,18.90
2018-10-21T16:26:07.229Z,17.97
2018-10-21T16:28:35.922Z,15.37
2018-10-21T16:31:05.040Z,16.03
2018-10-21T16:33:49.615Z,15.67
2018-10-21T16:39:17.455Z,16.13
2018-10-21T16:44:37.324Z,16.87
2018-10-21T16:58:52.320Z,14.77
2018-10-21T17:01:21.327Z,17.57
2018-10-21T17:04:02.989Z,23.87
2018-10-21T17:06:32.428Z,28.33
2018-10-21T17:09:01.253Z,36.37
2018-10-21T17:11:30.651Z,28.27
2018-10-21T17:13:59.427Z,23.60
2018-10-21T17:16:28.145Z,25.77
2018-10-21T17:18:57.125Z,21.43
2018-10-21T17:21:25.852Z,20.27
2018-10-21T17:23:55.348Z,17.13
2018-10-21T17:26:24.097Z,18.20
2018-10-21T17:28:52.827Z,18.37
2018-10-21T17:31:22.052Z,19.37
2018-10-21T17:33:51.648Z,18.37
2018-10-21T17:36:20.628Z,17.87
2018-10-21T17:38:49.655Z,16.00
2018-10-21T17:41:19.312Z,15.27
2018-10-21T17:43:48.229Z,16.77
2018-10-21T17:46:17.327Z,17.83
2018-10-21T17:48:45.961Z,17.30
2018-10-21T17:51:14.690Z,20.77
2018-10-21T17:53:43.575Z,20.07
2018-10-21T17:56:12.316Z,21.52
2018-10-21T17:58:41.162Z,22.20
2018-10-21T18:01:10.289Z,30.20
2018-10-21T18:03:39.250Z,32.30
2018-10-21T18:06:07.976Z,27.87
2018-10-21T18:08:36.717Z,24.10
2018-10-21T18:11:06.239Z,21.57
2018-10-21T18:13:35.222Z,18.93
2018-10-21T18:16:05.315Z,19.82
2018-10-21T18:18:34.126Z,19.63
2018-10-21T18:21:03.133Z,19.20
2018-10-21T18:23:32.104Z,22.73
2018-10-21T18:26:00.837Z,27.20
2018-10-21T18:28:29.542Z,24.85
2018-10-21T18:30:58.303Z,19.43
2018-10-21T18:33:27.203Z,19.43
2018-10-21T18:35:55.928Z,23.00
2018-10-21T18:38:24.840Z,33.10
2018-10-21T18:40:54.205Z,30.30
2018-10-21T18:43:23.753Z,24.72
2018-10-21T18:45:52.490Z,21.50
2018-10-21T18:48:21.467Z,18.40
2018-10-21T18:50:50.143Z,19.90
2018-10-21T18:53:19.933Z,18.15
2018-10-21T18:55:49.324Z,17.67
2018-10-21T18:58:18.388Z,18.50
2018-10-21T19:00:47.318Z,20.60
2018-10-21T19:03:17.238Z,18.02
2018-10-21T19:05:46.217Z,19.67
2018-10-21T19:08:15.211Z,18.00
2018-10-21T19:10:44.190Z,18.20
2018-10-21T19:13:14.015Z,21.20
2018-10-21T19:15:42.720Z,19.87
2018-10-21T19:18:11.785Z,20.53
2018-10-21T19:20:42.204Z,22.50
2018-10-21T19:23:11.020Z,25.90
2018-10-21T19:25:39.768Z,23.80
2018-10-21T19:28:08.547Z,21.00
2018-10-21T19:30:37.383Z,19.17
2018-10-21T19:33:06.132Z,18.20
2018-10-21T19:35:35.036Z,21.07
2018-10-21T19:38:03.764Z,18.27
2018-10-21T19:40:33.383Z,20.53
2018-10-21T19:43:02.177Z,20.63
2018-10-21T19:45:30.832Z,19.73
2018-10-21T19:48:00.632Z,22.37
2018-10-21T19:50:29.376Z,20.47
2018-10-21T19:52:58.113Z,21.03
2018-10-21T19:55:26.904Z,22.30
2018-10-21T19:57:55.926Z,19.73
2018-10-21T20:00:24.685Z,22.17
2018-10-21T20:02:53.643Z,23.23
2018-10-21T20:05:22.361Z,19.67
2018-10-21T20:07:51.305Z,23.00
2018-10-21T20:10:20.087Z,22.67
2018-10-21T20:12:48.740Z,23.37
2018-10-21T20:15:17.472Z,28.67
2018-10-21T20:17:46.224Z,24.97
2018-10-21T20:20:14.940Z,25.02
2018-10-21T20:22:43.672Z,27.70
2018-10-21T20:25:12.458Z,27.32
2018-10-21T20:27:41.193Z,22.50
2018-10-21T20:30:11.048Z,21.68
2018-10-21T20:32:39.856Z,21.97
2018-10-21T20:35:10.389Z,25.03
2018-10-21T20:37:39.117Z,23.40
2018-10-21T20:40:08.530Z,22.67
2018-10-21T20:42:37.232Z,21.83
2018-10-21T20:45:07.408Z,27.03
2018-10-21T20:47:36.527Z,24.23
2018-10-21T20:50:05.342Z,20.97
2018-10-21T20:52:34.041Z,24.57
2018-10-21T20:55:02.768Z,23.40
2018-10-21T20:57:31.784Z,21.27
2018-10-21T21:00:00.538Z,23.00
2018-10-21T21:02:29.257Z,23.90
2018-10-21T21:04:57.988Z,23.10
2018-10-21T21:07:27.847Z,23.00
2018-10-21T21:09:56.586Z,23.62
2018-10-21T21:12:25.439Z,19.83
2018-10-21T21:14:54.157Z,21.73
2018-10-21T21:17:22.952Z,20.20
2018-10-21T21:19:51.672Z,19.37
2018-10-21T21:22:20.440Z,21.63
2018-10-21T21:25:08.628Z,19.82
2018-10-21T21:27:37.347Z,21.90
2018-10-21T21:30:06.641Z,25.00
2018-10-21T21:35:29.095Z,21.17
2018-10-21T21:37:57.832Z,25.47
2018-10-21T21:40:26.548Z,24.13
2018-10-21T21:42:55.256Z,24.70
2018-10-21T21:45:24.036Z,25.67
2018-10-21T21:47:53.020Z,22.03
2018-10-21T21:50:21.768Z,22.05
2018-10-21T21:52:50.507Z,21.80
2018-10-21T21:55:19.264Z,24.87
2018-10-21T22:00:22.947Z,22.98
2018-10-21T22:02:57.940Z,22.58
2018-10-21T22:05:26.671Z,20.10
2018-10-21T22:07:55.471Z,24.90
2018-10-21T22:10:24.453Z,23.63
2018-10-21T22:12:53.168Z,20.27
2018-10-21T22:15:22.148Z,23.43
2018-10-21T22:17:51.269Z,20.63
2018-10-21T22:20:19.995Z,25.75
2018-10-21T22:22:48.708Z,23.47
2018-10-21T22:25:17.433Z,20.30
2018-10-21T22:27:46.193Z,19.33
2018-10-21T22:30:14.981Z,22.07
2018-10-21T22:32:43.672Z,25.10
2018-10-21T22:35:12.399Z,21.37
2018-10-21T22:37:41.116Z,20.77
2018-10-21T22:40:09.880Z,20.27
2018-10-21T22:42:57.884Z,24.97
2018-10-21T22:45:26.612Z,22.27
2018-10-21T22:47:55.704Z,20.27
2018-10-21T22:50:24.444Z,21.90
2018-10-21T22:52:53.160Z,21.40
2018-10-21T22:55:21.887Z,20.45
2018-10-21T22:57:51.131Z,22.23
2018-10-21T23:00:19.855Z,19.67
2018-10-21T23:02:53.100Z,19.87
2018-10-21T23:05:22.310Z,21.85
2018-10-21T23:07:51.021Z,21.97
2018-10-21T23:10:19.777Z,22.50
2018-10-21T23:12:48.487Z,21.23
2018-10-21T23:15:17.231Z,25.83
2018-10-21T23:17:46.052Z,25.97
2018-10-21T23:20:14.761Z,22.50
2018-10-21T23:22:43.508Z,21.77
2018-10-21T23:25:12.213Z,21.30
2018-10-21T23:27:40.947Z,23.33
2018-10-21T23:30:09.670Z,24.02
2018-10-21T23:32:38.378Z,21.37
2018-10-21T23:35:07.751Z,20.00
2018-10-21T23:37:36.412Z,21.40
2018-10-21T23:40:06.824Z,21.87
2018-10-21T23:42:35.632Z,19.07
2018-10-21T23:45:05.348Z,20.48
2018-10-21T23:47:34.064Z,21.03
2018-10-21T23:50:02.819Z,22.52
2018-10-21T23:52:31.552Z,23.33
2018-10-21T23:55:00.568Z,23.00
2018-10-21T23:57:29.344Z,21.47
2018-10-21T23:59:58.078Z,23.20
